Time;durP1;ratioP1;P1;durP2;ratioP2;P2;SDS_P1;SDS_P2;PMS_P1;PMS_P2;Temp;Humidity;BMP_temperature;BMP_pressure;BME280_temperature;BME280_humidity;BME280_pressure;Samples;Min_cycle;Max_cycle;Signal;HPM_P1;HPM_P2
2022/08/27 00:01:21;;;;;;;10.15;5.13;;;;;;;26.41;60.31;100659.47;5070407;28;20023;-80
2022/08/27 00:03:46;;;;;;;;;;;;;;;26.45;60.40;100655.84;5071923;28;20035;-80
2022/08/27 00:06:14;;;;;;;8.25;5.15;;;;;;;26.43;60.11;100656.78;5053329;28;19908;-80
2022/08/27 00:08:41;;;;;;;8.73;5.35;;;;;;;26.38;59.94;100651.50;5071685;28;20043;-80
2022/08/27 00:11:07;;;;;;;8.60;4.97;;;;;;;26.39;59.86;100656.84;5071355;28;20024;-79
2022/08/27 00:13:33;;;;;;;7.15;5.00;;;;;;;26.41;60.17;100659.47;5071414;28;20013;-78
2022/08/27 00:15:58;;;;;;;;;;;;;;;26.47;60.26;100658.50;5071727;28;20618;-79
2022/08/27 00:18:25;;;;;;;9.63;4.95;;;;;;;26.36;59.97;100646.16;5053337;28;19920;-78
2022/08/27 00:20:50;;;;;;;8.30;5.10;;;;;;;26.38;60.04;100647.00;5071580;28;20025;-79
2022/08/27 00:23:16;;;;;;;;;;;;;;;26.45;60.30;100653.16;5069771;28;20028;-79
2022/08/27 00:25:41;;;;;;;10.85;5.50;;;;;;;26.30;60.00;100635.53;5071858;28;20392;-80
2022/08/27 00:28:07;;;;;;;;;;;;;;;26.44;60.14;100654.09;5071720;28;20642;-79
2022/08/27 00:30:33;;;;;;;8.75;4.90;;;;;;;26.40;60.07;100649.69;5071550;28;19944;-79
2022/08/27 00:32:58;;;;;;;9.40;5.40;;;;;;;26.37;60.54;100658.66;5069787;28;20016;-80
2022/08/27 00:35:25;;;;;;;8.02;4.78;;;;;;;26.34;60.10;100649.75;5071974;28;20063;-80
2022/08/27 00:37:51;;;;;;;11.25;5.20;;;;;;;26.39;60.07;100658.59;5071414;28;20162;-80
2022/08/27 00:40:17;;;;;;;;;;;;;;;26.43;60.30;100657.66;5071110;28;20666;-79
2022/08/27 00:42:44;;;;;;;8.98;5.25;;;;;;;26.28;59.77;100636.44;5071336;28;19990;-79
2022/08/27 00:45:14;;;;;;;8.63;4.85;;;;;;;26.38;60.09;100655.06;5063079;28;20028;-79
2022/08/27 00:47:44;;;;;;;9.38;5.40;;;;;;;26.38;60.16;100657.72;5065396;28;20111;-79
2022/08/27 00:50:14;;;;;;;9.93;4.65;;;;;;;26.37;60.21;100652.38;5053167;28;20031;-81
2022/08/27 00:53:01;;;;;;;9.32;5.18;;;;;;;26.31;60.29;100639.06;5053160;28;20032;-79
2022/08/27 00:55:32;;;;;;;9.30;5.03;;;;;;;26.38;59.96;100657.72;5059442;28;20032;-81
2022/08/27 00:58:03;;;;;;;7.78;5.22;;;;;;;26.35;59.96;100652.44;5054630;28;20174;-78
2022/08/27 01:00:29;;;;;;;9.05;5.13;;;;;;;26.37;59.86;100657.75;5071428;28;20495;-80
2022/08/27 01:02:54;;;;;;;;;;;;;;;26.40;60.38;100657.72;5071390;28;20029;-80
2022/08/27 01:05:21;;;;;;;8.25;4.93;;;;;;;26.32;59.75;100664.97;5070940;28;19908;-80
2022/08/27 01:07:49;;;;;;;8.25;5.38;;;;;;;26.27;60.44;100657.00;5069434;28;20024;-81
2022/08/27 01:10:18;;;;;;;7.35;5.40;;;;;;;26.27;60.07;100657.00;5070872;28;20024;-80
2022/08/27 01:12:44;;;;;;;8.68;5.20;;;;;;;26.27;59.65;100661.44;5070931;28;20485;-80
2022/08/27 01:15:10;;;;;;;;;;;;;;;26.37;60.06;100677.38;5073470;28;20067;-80
2022/08/27 01:17:37;;;;;;;10.73;5.20;;;;;;;26.33;59.71;100669.38;5076360;28;19912;-79
2022/08/27 01:20:08;;;;;;;11.70;5.68;;;;;;;26.27;59.73;100669.47;5073469;28;20075;-80
2022/08/27 01:22:54;;;;;;;8.73;5.32;;;;;;;26.34;59.89;100679.22;5074772;28;20104;-80
2022/08/27 01:25:22;;;;;;;7.32;5.55;;;;;;;26.30;59.66;100677.47;5074588;28;20024;-80
2022/08/27 01:27:50;;;;;;;11.98;5.40;;;;;;;26.22;60.03;100657.94;5076100;28;20543;-81
2022/08/27 01:30:19;;;;;;;8.73;5.18;;;;;;;26.25;60.17;100677.53;5074142;28;20476;-82
2022/08/27 01:32:45;;;;;;;8.85;5.25;;;;;;;26.22;60.75;100664.16;5074669;28;20055;-81
2022/08/27 01:35:13;;;;;;;9.40;4.78;;;;;;;26.24;59.82;100664.16;5074638;28;20032;-80
2022/08/27 01:37:40;;;;;;;8.50;4.90;;;;;;;26.22;60.12;100663.28;5069544;28;20060;-80
2022/08/27 01:40:07;;;;;;;11.27;5.50;;;;;;;26.29;59.42;100673.91;5074398;28;20033;-80
2022/08/27 01:42:39;;;;;;;8.70;5.43;;;;;;;26.27;59.85;100675.72;5074274;28;20024;-80
2022/08/27 01:45:21;;;;;;;7.68;5.28;;;;;;;26.16;59.51;100656.22;5073285;28;20412;-80
2022/08/27 01:47:47;;;;;;;7.32;4.90;;;;;;;26.23;59.25;100671.31;5074122;28;20024;-80
2022/08/27 01:50:17;;;;;;;;;;;;;;;26.30;60.21;100673.00;5064974;28;20082;-80
2022/08/27 01:52:43;;;;;;;13.25;5.47;;;;;;;26.18;59.68;100662.44;5070645;28;20420;-80
2022/08/27 01:55:10;;;;;;;7.95;5.03;;;;;;;26.19;60.01;100664.22;5074080;28;20044;-80
2022/08/27 01:57:38;;;;;;;5.68;4.80;;;;;;;26.21;59.77;100665.09;5059900;28;20049;-80
2022/08/27 02:00:06;;;;;;;8.85;5.13;;;;;;;26.18;59.64;100663.34;5074171;28;20024;-80
2022/08/27 02:02:32;;;;;;;11.43;5.20;;;;;;;26.24;59.85;100670.41;5056100;28;20059;-80
2022/08/27 02:04:57;;;;;;;;;;;;;;;26.26;60.34;100671.25;5074417;28;20024;-81
2022/08/27 02:07:23;;;;;;;9.30;5.20;;;;;;;26.19;59.76;100673.13;5073584;28;19974;-80
2022/08/27 02:09:49;;;;;;;8.57;4.72;;;;;;;26.20;59.26;100682.03;5073836;28;20048;-80
2022/08/27 02:12:14;;;;;;;6.72;5.00;;;;;;;26.24;59.73;100689.13;5073913;28;20024;-80
2022/08/27 02:14:40;;;;;;;8.23;5.18;;;;;;;26.19;59.90;100680.28;5069452;28;20009;-80
2022/08/27 02:17:05;;;;;;;;;;;;;;;26.24;60.08;100689.13;5074210;28;20024;-80
2022/08/27 02:19:31;;;;;;;8.48;5.10;;;;;;;26.17;59.99;100677.63;5073338;28;20300;-80
2022/08/27 02:21:59;;;;;;;;;;;;;;;26.25;59.92;100688.25;5073896;28;20408;-80
2022/08/27 02:24:26;;;;;;;9.98;5.47;;;;;;;26.16;59.56;100677.63;5072995;28;20453;-80
2022/08/27 02:26:53;;;;;;;9.45;5.20;;;;;;;26.17;59.97;100688.31;5073087;28;20109;-80
2022/08/27 02:29:19;;;;;;;9.45;5.45;;;;;;;26.18;59.46;100691.88;5073233;28;20103;-80
2022/08/27 02:31:44;;;;;;;;;;;;;;;26.23;60.06;100692.72;5070285;28;20029;-79
2022/08/27 02:34:10;;;;;;;9.07;5.35;;;;;;;26.18;59.63;100692.78;5074219;28;19958;-80
2022/08/27 02:36:37;;;;;;;;;;;;;;;26.23;59.72;100699.88;5078371;28;20484;-80
2022/08/27 02:39:04;;;;;;;6.15;4.60;;;;;;;26.19;60.10;100693.66;5075913;28;19908;-80
2022/08/27 02:41:30;;;;;;;8.65;5.15;;;;;;;26.15;60.02;100695.47;5057725;28;20035;-79
2022/08/27 02:43:55;;;;;;;;;;;;;;;26.20;59.66;100701.69;5074463;28;20481;-81
2022/08/27 02:46:21;;;;;;;11.38;5.30;;;;;;;26.10;59.49;100689.31;5073379;28;19919;-79
2022/08/27 02:48:46;;;;;;;;;;;;;;;26.20;60.13;100698.09;5073519;28;20386;-79
2022/08/27 02:51:12;;;;;;;7.43;4.72;;;;;;;26.13;59.89;100689.25;5054895;28;19908;-80
2022/08/27 02:53:37;;;;;;;;;;;;;;;26.18;59.98;100695.47;5073610;28;20013;-80
2022/08/27 02:56:05;;;;;;;8.43;5.35;;;;;;;26.11;60.44;100684.84;5072816;28;19908;-80
2022/08/27 02:58:32;;;;;;;12.02;5.70;;;;;;;26.07;59.28;100686.66;5072664;28;20044;-80
2022/08/27 03:01:01;;;;;;;8.48;5.32;;;;;;;26.10;60.09;100705.38;5072458;28;20071;-80
2022/08/27 03:03:28;;;;;;;11.65;5.72;;;;;;;26.12;59.87;100703.56;5072348;28;20056;-80
2022/08/27 03:05:55;;;;;;;7.53;5.55;;;;;;;26.08;59.77;100690.25;5072108;28;20056;-79
2022/08/27 03:08:20;;;;;;;6.55;5.05;;;;;;;26.08;59.92;100693.78;5072633;28;20028;-79
2022/08/27 03:10:46;;;;;;;;;;;;;;;26.14;59.89;100695.50;5072974;28;20031;-79
2022/08/27 03:13:11;;;;;;;8.15;5.22;;;;;;;26.13;59.76;100704.44;5072664;28;19977;-79
2022/08/27 03:15:37;;;;;;;;;;;;;;;26.12;60.06;100694.63;5073086;28;20424;-79
2022/08/27 03:18:17;;;;;;;7.70;5.07;;;;;;;26.10;59.64;100705.38;5072231;28;20003;-81
2022/08/27 03:20:45;;;;;;;7.18;5.57;;;;;;;26.09;60.18;100702.69;5072802;28;20090;-79
2022/08/27 03:23:13;;;;;;;10.85;5.40;;;;;;;26.06;59.23;100692.03;5072032;28;20047;-79
2022/08/27 03:25:42;;;;;;;10.00;5.50;;;;;;;26.06;59.67;100708.97;5072283;28;20048;-79
2022/08/27 03:28:08;;;;;;;13.00;5.57;;;;;;;26.04;60.13;100701.88;5072284;28;20024;-79
2022/08/27 03:30:33;;;;;;;;;;;;;;;26.12;60.30;100705.31;5072696;28;20539;-79
2022/08/27 03:32:59;;;;;;;8.45;4.90;;;;;;;25.94;60.00;100688.56;5072031;28;20426;-78
2022/08/27 03:35:24;;;;;;;7.90;5.30;;;;;;;26.05;59.49;100707.19;5054165;28;20049;-79
2022/08/27 03:37:50;;;;;;;10.93;5.55;;;;;;;25.98;59.79;100698.34;5072003;28;20029;-79
2022/08/27 03:40:16;;;;;;;;;;;;;;;26.10;59.94;100715.16;5068438;28;20025;-80
2022/08/27 03:42:42;;;;;;;9.98;5.03;;;;;;;26.01;59.46;100710.78;5071938;28;19919;-79
2022/08/27 03:45:08;;;;;;;;;;;;;;;26.07;59.47;100709.84;5072375;28;20020;-79
2022/08/27 03:47:34;;;;;;;9.43;5.82;;;;;;;25.94;59.42;100696.59;5071699;28;19937;-80
2022/08/27 03:50:00;;;;;;;10.38;5.20;;;;;;;26.02;59.83;100703.69;5072193;28;20028;-79
2022/08/27 03:52:27;;;;;;;9.40;5.00;;;;;;;26.01;59.53;100708.13;5072364;28;20079;-79
2022/08/27 03:54:53;;;;;;;7.90;5.55;;;;;;;25.95;59.99;100695.72;5072048;28;20641;-80
2022/08/27 03:57:18;;;;;;;8.63;5.10;;;;;;;26.02;60.17;100707.25;5071940;28;20059;-80
2022/08/27 03:59:44;;;;;;;;;;;;;;;26.06;60.20;100703.63;5052138;28;20096;-79
2022/08/27 04:02:10;;;;;;;9.02;5.45;;;;;;;25.90;59.76;100689.50;5033772;28;19908;-81
2022/08/27 04:04:36;;;;;;;9.57;5.68;;;;;;;25.88;60.45;100685.03;5047413;28;20039;-80
2022/08/27 04:07:01;;;;;;;;;;;;;;;26.01;59.56;100705.44;5047526;28;20104;-80
2022/08/27 04:09:27;;;;;;;8.95;5.43;;;;;;;25.96;59.47;100694.78;5050782;28;20054;-80
2022/08/27 04:11:52;;;;;;;;;;;;;;;26.03;59.93;100709.00;5051868;28;20025;-82
2022/08/27 04:14:18;;;;;;;9.07;5.93;;;;;;;25.98;59.58;100702.81;5047201;28;20404;-83
2022/08/27 04:16:44;;;;;;;;;;;;;;;26.00;59.82;100709.91;5033942;28;20414;-83
2022/08/27 04:19:11;;;;;;;15.35;6.00;;;;;;;25.96;59.94;100710.84;5033248;28;19909;-82
2022/08/27 04:21:37;;;;;;;9.20;5.90;;;;;;;25.91;59.52;100703.78;5051440;28;20390;-83
2022/08/27 04:24:03;;;;;;;6.90;4.97;;;;;;;25.96;59.53;100707.28;5051324;28;20047;-82
2022/08/27 04:26:29;;;;;;;11.07;5.38;;;;;;;25.87;59.33;100697.53;5051244;28;20021;-82
2022/08/27 04:28:57;;;;;;;10.02;5.80;;;;;;;25.94;59.79;100714.44;5049765;28;20036;-80
2022/08/27 04:31:22;;;;;;;10.13;5.43;;;;;;;25.93;59.44;100712.66;5008547;28;20032;-82
2022/08/27 04:33:48;;;;;;;;;;;;;;;25.99;59.71;100717.94;5051713;28;20478;-80
2022/08/27 04:36:13;;;;;;;9.40;5.22;;;;;;;25.98;59.61;100721.53;5050821;28;19915;-82
2022/08/27 04:38:39;;;;;;;;;;;;;;;25.98;60.04;100711.72;5047600;28;20033;-83
2022/08/27 04:41:20;;;;;;;8.40;5.43;;;;;;;25.90;59.79;100710.91;5028118;28;19913;-84
2022/08/27 04:43:55;;;;;;;8.07;5.22;;;;;;;25.91;59.70;100719.84;5021554;28;20112;-84
2022/08/27 04:46:31;;;;;;;11.18;5.60;;;;;;;25.93;59.76;100713.56;5050941;28;20508;-83
2022/08/27 04:49:00;;;;;;;11.18;5.18;;;;;;;25.93;59.81;100715.34;5050309;28;20028;-83
2022/08/27 04:51:27;;;;;;;11.05;5.72;;;;;;;25.86;60.03;100711.81;5018440;28;20449;-83
2022/08/27 04:53:53;;;;;;;9.52;5.43;;;;;;;25.88;59.85;100718.03;5029416;28;20083;-85
2022/08/27 04:56:21;;;;;;;;;;;;;;;25.96;60.03;100723.34;5045221;28;20025;-85
2022/08/27 04:58:46;;;;;;;10.50;5.68;;;;;;;25.91;60.02;100726.06;5055920;28;19927;-85
2022/08/27 05:01:19;;;;;;;;;;;;;;;25.93;60.08;100724.28;5073307;28;20029;-85
2022/08/27 05:03:45;;;;;;;9.98;5.60;;;;;;;25.91;59.71;100728.75;5073678;28;19916;-84
2022/08/27 05:06:11;;;;;;;;;;;;;;;25.93;59.79;100724.28;5067974;28;20025;-85
2022/08/27 05:08:36;;;;;;;9.57;5.38;;;;;;;25.84;60.02;100723.44;5070795;28;20300;-84
2022/08/27 05:11:05;;;;;;;;;;;;;;;25.83;59.95;100732.38;5073954;28;20401;-84
2022/08/27 05:13:30;;;;;;;10.75;5.60;;;;;;;25.69;60.09;100717.31;5054399;28;19940;-85
2022/08/27 05:15:57;;;;;;;;;;;;;;;25.83;59.90;100738.59;5074002;28;20067;-85
2022/08/27 05:18:23;;;;;;;13.85;5.38;;;;;;;25.73;60.01;100731.56;5074116;28;19977;-85
2022/08/27 05:20:48;;;;;;;;;;;;;;;25.79;60.14;100747.56;5069684;28;20401;-88
2022/08/27 05:23:16;;;;;;;12.40;5.63;;;;;;;25.59;60.21;100713.84;5075486;28;19912;-84
2022/08/27 05:25:44;;;;;;;13.48;5.75;;;;;;;25.65;60.26;100723.59;5074346;28;20027;-88
2022/08/27 05:28:12;;;;;;;9.45;5.78;;;;;;;25.79;59.99;100743.09;5072265;28;20117;-84
2022/08/27 05:30:43;;;;;;;9.00;5.18;;;;;;;25.83;60.13;100745.75;5070489;28;20028;-83
2022/08/27 05:33:10;;;;;;;11.63;5.78;;;;;;;25.83;59.79;100738.59;5070115;28;20021;-85
2022/08/27 05:35:47;;;;;;;14.00;5.80;;;;;;;25.72;60.12;100730.69;5053096;28;20455;-82
2022/08/27 05:38:14;;;;;;;13.45;5.18;;;;;;;25.80;60.67;100741.28;5060138;28;20020;-82
2022/08/27 05:40:40;;;;;;;7.43;5.22;;;;;;;25.81;60.71;100743.09;5064284;28;20129;-83
2022/08/27 05:43:06;;;;;;;;;;;;;;;25.83;60.71;100741.28;5070611;28;20060;-81
2022/08/27 05:45:32;;;;;;;13.35;5.47;;;;;;;25.79;60.68;100737.75;5057182;28;19940;-82
2022/08/27 05:47:58;;;;;;;11.68;5.60;;;;;;;25.74;60.50;100728.88;5056290;28;20107;-81
2022/08/27 05:50:24;;;;;;;;;;;;;;;25.89;60.32;100751.97;5070277;28;20052;-80
2022/08/27 05:52:50;;;;;;;13.00;5.80;;;;;;;25.84;60.38;100748.38;5072139;28;19944;-83
2022/08/27 05:55:16;;;;;;;;;;;;;;;25.88;60.74;100752.81;5072712;28;20024;-84
2022/08/27 05:57:41;;;;;;;12.45;5.30;;;;;;;25.80;60.77;100752.91;5069204;28;20012;-81
2022/08/27 06:02:51;;;;;;;8.82;5.10;;;;;;;25.78;60.73;100751.13;5073618;28;19924;-83
2022/08/27 06:05:17;;;;;;;;;;;;;;;25.90;60.56;100768.91;5076044;28;20020;-82
2022/08/27 06:07:42;;;;;;;12.50;5.47;;;;;;;25.83;60.85;100759.13;5067729;28;19955;-84
2022/08/27 06:10:08;;;;;;;;;;;;;;;25.90;60.81;100772.44;5074034;28;20055;-81
2022/08/27 06:12:34;;;;;;;12.38;5.38;;;;;;;25.86;60.76;100761.75;5073805;28;19908;-82
2022/08/27 06:15:00;;;;;;;14.85;6.03;;;;;;;25.83;60.69;100773.38;5076299;28;20021;-82
2022/08/27 06:17:26;;;;;;;10.60;5.30;;;;;;;25.85;60.95;100771.59;5054802;28;20036;-82
2022/08/27 06:19:51;;;;;;;;;;;;;;;25.90;60.62;100766.22;5074651;28;20126;-83
2022/08/27 06:22:17;;;;;;;18.13;7.03;;;;;;;25.87;60.76;100777.81;5057507;28;20391;-83
2022/08/27 06:24:42;;;;;;;;;;;;;;;25.91;60.52;100778.72;5071987;28;20421;-83
2022/08/27 06:27:13;;;;;;;12.13;5.85;;;;;;;25.86;60.73;100776.00;5073737;28;19908;-80
2022/08/27 06:29:39;;;;;;;11.63;5.65;;;;;;;25.76;60.75;100759.19;5073374;28;20056;-83
2022/08/27 06:32:05;;;;;;;;;;;;;;;25.90;60.78;100777.81;5051997;28;20037;-82
2022/08/27 06:34:32;;;;;;;11.32;5.22;;;;;;;25.86;60.90;100773.34;5053890;28;19908;-81
2022/08/27 06:36:58;;;;;;;14.43;5.60;;;;;;;25.84;61.09;100777.81;5072549;28;20020;-81
2022/08/27 06:39:23;;;;;;;;;;;;;;;25.89;60.78;100777.84;5072414;28;20031;-82
2022/08/27 06:41:49;;;;;;;7.97;5.10;;;;;;;25.83;60.72;100775.19;5053094;28;19912;-83
2022/08/27 06:44:14;;;;;;;;;;;;;;;25.88;60.83;100774.22;5072403;28;20068;-85
2022/08/27 06:46:41;;;;;;;9.80;5.15;;;;;;;25.85;60.73;100776.94;5072386;28;19919;-84
2022/08/27 06:49:07;;;;;;;11.00;5.32;;;;;;;25.72;61.12;100762.78;5072898;28;20095;-82
2022/08/27 06:51:35;;;;;;;7.53;4.88;;;;;;;25.81;61.19;100775.19;5054701;28;20552;-83
2022/08/27 06:54:07;;;;;;;9.07;5.20;;;;;;;25.77;60.74;100763.63;5076039;28;20024;-83
2022/08/27 06:56:33;;;;;;;8.77;5.20;;;;;;;25.79;61.02;100777.88;5074422;28;20051;-84
2022/08/27 06:59:00;;;;;;;;;;;;;;;25.87;60.93;100783.16;5070785;28;20072;-86
2022/08/27 07:01:29;;;;;;;7.68;4.75;;;;;;;25.81;61.35;100785.88;5072666;28;20429;-83
2022/08/27 07:03:57;;;;;;;10.60;5.43;;;;;;;25.75;60.82;100780.59;5071684;28;20052;-80
2022/08/27 07:06:23;;;;;;;8.05;4.95;;;;;;;25.82;60.91;100790.31;5051127;28;20040;-80
2022/08/27 07:08:50;;;;;;;8.43;5.30;;;;;;;25.59;61.27;100762.00;5072883;28;20033;-80
2022/08/27 07:11:16;;;;;;;10.68;5.43;;;;;;;25.73;61.10;100793.97;5054421;28;20031;-80
2022/08/27 07:13:42;;;;;;;8.32;4.95;;;;;;;25.70;61.34;100799.34;5071041;28;20373;-79
2022/08/27 07:16:10;;;;;;;10.80;5.68;;;;;;;25.85;60.82;100801.00;5053007;28;20175;-80
2022/08/27 07:18:37;;;;;;;9.02;5.15;;;;;;;25.83;61.40;100801.94;5071463;28;20028;-80
2022/08/27 07:21:04;;;;;;;8.77;4.85;;;;;;;25.86;61.06;100801.88;5054412;28;20028;-80
2022/08/27 07:23:31;;;;;;;7.03;5.00;;;;;;;25.80;61.45;100798.38;5071500;28;20658;-80
2022/08/27 07:25:58;;;;;;;10.35;5.38;;;;;;;25.81;61.72;100785.88;5071996;28;20074;-88
2022/08/27 07:28:24;;;;;;;15.40;6.22;;;;;;;25.90;61.22;100790.31;5070393;28;20031;-87
2022/08/27 07:30:50;;;;;;;;;;;;;;;26.10;61.33;100795.44;5054991;28;20107;-89
2022/08/27 07:33:16;;;;;;;22.63;6.68;;;;;;;25.94;61.32;100786.69;5052193;28;19919;-88
2022/08/27 07:35:43;;;;;;;;;;;;;;;26.10;61.26;100799.03;5068120;28;20067;-80
2022/08/27 07:38:10;;;;;;;32.20;7.37;;;;;;;26.16;60.87;100804.34;5069278;28;19908;-80
2022/08/27 07:40:36;;;;;;;27.50;7.20;;;;;;;25.99;61.32;100795.56;5071961;28;20631;-80
2022/08/27 07:45:49;;;;;;;20.55;6.70;;;;;;;25.84;61.69;100788.53;5066772;28;20057;-81
2022/08/27 07:48:15;;;;;;;18.58;6.88;;;;;;;25.83;61.96;100801.94;5050444;28;20025;-79
2022/08/27 07:50:40;;;;;;;;;;;;;;;25.77;62.33;100800.19;5072230;28;20432;-80
2022/08/27 07:53:07;;;;;;;20.15;6.93;;;;;;;25.75;62.32;100799.31;5072066;28;19919;-80
2022/08/27 07:55:36;;;;;;;18.02;6.10;;;;;;;25.70;62.26;100794.00;5070697;28;20400;-81
2022/08/27 07:58:01;;;;;;;17.20;6.95;;;;;;;25.76;62.52;100807.34;5071796;28;20048;-81
2022/08/27 08:00:27;;;;;;;;;;;;;;;25.79;62.44;100825.13;5072599;28;20086;-79
2022/08/27 08:02:53;;;;;;;17.23;6.65;;;;;;;25.81;62.46;100823.34;5053364;28;19915;-79
2022/08/27 08:05:18;;;;;;;;;;;;;;;25.82;62.65;100816.19;5072483;28;20039;-78
2022/08/27 08:07:44;;;;;;;17.83;6.60;;;;;;;25.83;62.40;100826.88;5071493;28;19909;-79
2022/08/27 08:10:10;;;;;;;;;;;;;;;25.80;62.53;100825.13;5072083;28;20029;-78
2022/08/27 08:12:37;;;;;;;22.50;6.97;;;;;;;25.79;62.44;100819.78;5052556;28;19923;-79
2022/08/27 08:15:05;;;;;;;12.45;5.88;;;;;;;25.78;62.52;100824.25;5070600;28;20017;-79
2022/08/27 08:17:33;;;;;;;17.88;6.15;;;;;;;25.74;62.76;100814.47;5069327;28;20079;-79
2022/08/27 08:19:59;;;;;;;14.68;5.75;;;;;;;25.84;62.41;100822.41;5052366;28;20051;-79
2022/08/27 08:22:26;;;;;;;;;;;;;;;25.82;62.68;100826.91;5071910;28;20028;-80
2022/08/27 08:24:52;;;;;;;12.10;6.03;;;;;;;25.82;62.80;100829.56;5053844;28;19912;-79
2022/08/27 08:27:18;;;;;;;;;;;;;;;25.83;62.78;100834.91;5070748;28;20084;-80
2022/08/27 08:29:44;;;;;;;20.88;6.72;;;;;;;25.81;63.16;100834.03;5060706;28;20361;-79
2022/08/27 08:32:10;;;;;;;14.98;5.85;;;;;;;25.74;63.01;100829.66;5070836;28;20028;-78
2022/08/27 08:34:35;;;;;;;;;;;;;;;25.82;62.92;100835.81;5072378;28;20020;-79
2022/08/27 08:37:01;;;;;;;14.35;5.95;;;;;;;25.80;63.22;100832.25;5070394;28;20408;-78
2022/08/27 08:39:26;;;;;;;;;;;;;;;25.81;62.97;100836.72;5071407;28;20020;-78
2022/08/27 08:41:55;;;;;;;14.25;6.32;;;;;;;25.78;63.30;100840.31;5051547;28;20003;-77
2022/08/27 08:44:20;;;;;;;13.13;5.80;;;;;;;25.83;63.20;100836.72;5053084;28;20155;-77
2022/08/27 08:46:47;;;;;;;;;;;;;;;25.85;62.88;100850.97;5070852;28;20111;-77
2022/08/27 08:49:28;;;;;;;12.93;5.78;;;;;;;25.80;63.31;100851.88;5051752;28;19959;-77
2022/08/27 08:51:55;;;;;;;11.05;5.47;;;;;;;25.79;63.17;100838.50;5051785;28;20177;-79
2022/08/27 08:54:22;;;;;;;13.05;5.72;;;;;;;25.83;62.95;100847.41;5069799;28;20028;-78
2022/08/27 08:57:27;;;;;;;10.10;5.45;;;;;;;25.84;63.43;100852.72;5035517;28;20465;-78
2022/08/27 09:00:13;;;;;;;15.98;5.70;;;;;;;25.87;62.98;100854.53;4962594;28;20042;-78
2022/08/27 09:02:41;;;;;;;9.45;6.18;;;;;;;25.87;62.96;100858.06;4972158;28;20118;-78
2022/08/27 09:05:08;;;;;;;11.50;5.85;;;;;;;25.77;63.53;100851.00;5024962;28;20043;-79
2022/08/27 09:07:37;;;;;;;10.65;5.93;;;;;;;25.84;63.33;100854.53;5069017;28;20120;-79
2022/08/27 09:10:27;;;;;;;11.70;5.90;;;;;;;25.87;63.30;100865.22;5069029;28;20051;-78
2022/08/27 09:12:56;;;;;;;14.10;6.20;;;;;;;25.90;62.88;100858.06;5067369;28;20036;-78
2022/08/27 09:15:24;;;;;;;15.93;5.75;;;;;;;25.90;62.94;100859.88;5047982;28;20030;-78
2022/08/27 09:17:50;;;;;;;14.63;5.57;;;;;;;25.89;63.34;100860.78;5069151;28;20105;-78
2022/08/27 09:20:20;;;;;;;;;;;;;;;25.91;63.27;100862.53;5071391;28;20460;-78
2022/08/27 09:23:33;;;;;;;13.27;5.38;;;;;;;25.90;63.31;100860.75;5049713;28;19913;-77
2022/08/27 09:25:58;;;;;;;13.68;5.72;;;;;;;25.85;63.06;100849.16;5033318;28;20440;-80
2022/08/27 09:31:18;;;;;;;14.13;5.90;;;;;;;25.92;63.11;100856.28;5068110;28;19967;-77
2022/08/27 09:33:44;;;;;;;13.63;5.90;;;;;;;25.88;63.18;100848.25;5051702;28;20048;-79
2022/08/27 09:36:13;;;;;;;15.85;5.82;;;;;;;25.96;63.14;100863.38;5052531;28;20099;-78
2022/08/27 09:38:41;;;;;;;12.80;5.82;;;;;;;25.98;62.90;100858.91;5073185;28;20021;-78
2022/08/27 09:41:15;;;;;;;13.95;6.15;;;;;;;25.91;63.06;100849.16;5053945;28;20035;-77
2022/08/27 09:43:42;;;;;;;16.02;5.85;;;;;;;25.91;63.03;100843.81;5038802;28;20009;-77
2022/08/27 09:46:22;;;;;;;18.73;5.70;;;;;;;25.96;63.12;100862.50;5073441;28;20032;-78
2022/08/27 09:48:48;;;;;;;11.48;5.55;;;;;;;25.92;63.33;100848.25;5073230;28;20028;-78
2022/08/27 09:51:24;;;;;;;;;;;;;;;25.97;63.36;100851.78;5072832;28;20048;-79
2022/08/27 09:53:58;;;;;;;10.82;5.20;;;;;;;25.98;63.52;100858.03;5073332;28;19913;-83
2022/08/27 09:56:28;;;;;;;13.93;5.70;;;;;;;25.90;63.29;100836.66;5071481;28;20028;-78
2022/08/27 09:59:05;;;;;;;14.80;5.65;;;;;;;25.98;63.27;100860.69;5067667;28;20040;-79
2022/08/27 10:01:33;;;;;;;17.45;5.45;;;;;;;25.98;63.31;100863.38;5070815;28;20099;-78
2022/08/27 10:04:11;;;;;;;10.75;5.35;;;;;;;25.92;63.08;100842.88;5054682;28;20032;-77
2022/08/27 10:06:43;;;;;;;15.80;5.50;;;;;;;26.02;63.16;100854.41;5062876;28;20028;-78
2022/08/27 10:09:32;;;;;;;12.40;5.53;;;;;;;26.00;63.48;100859.78;5037025;28;20055;-78
2022/08/27 10:12:42;;;;;;;14.00;5.78;;;;;;;26.05;63.44;100861.53;5054192;28;20019;-79
2022/08/27 10:15:09;;;;;;;11.73;5.78;;;;;;;26.03;63.05;100861.53;4990358;28;20034;-77
2022/08/27 10:18:04;;;;;;;11.07;5.38;;;;;;;25.95;63.10;100839.28;5059380;28;20063;-80
2022/08/27 10:20:58;;;;;;;14.98;6.22;;;;;;;26.02;63.23;100859.78;5061389;28;20519;-79
2022/08/27 10:24:01;;;;;;;13.90;5.57;;;;;;;26.03;63.55;100863.31;5071490;28;20082;-78
2022/08/27 10:26:33;;;;;;;14.57;5.63;;;;;;;25.99;63.14;100841.03;5073550;28;20080;-81
2022/08/27 10:29:12;;;;;;;15.93;5.85;;;;;;;26.06;63.42;100853.50;5051120;28;20029;-79
2022/08/27 10:31:53;;;;;;;16.95;5.68;;;;;;;26.10;63.34;100849.91;5056460;28;20024;-78
2022/08/27 10:34:33;;;;;;;14.70;5.68;;;;;;;26.09;63.48;100844.53;5074019;28;20447;-80
2022/08/27 10:37:16;;;;;;;15.70;6.00;;;;;;;25.99;63.22;100833.94;5069729;28;20017;-79
2022/08/27 10:40:15;;;;;;;12.65;5.82;;;;;;;26.08;63.34;100841.00;5073740;28;20043;-80
2022/08/27 10:42:51;;;;;;;15.75;5.95;;;;;;;25.97;63.41;100825.03;5054653;28;20030;-80
2022/08/27 10:45:25;;;;;;;13.00;5.47;;;;;;;26.09;63.68;100844.53;5045838;28;20040;-80
2022/08/27 10:48:15;;;;;;;12.23;5.70;;;;;;;26.09;63.53;100842.75;5072381;28;20037;-78
2022/08/27 10:50:53;;;;;;;17.17;5.80;;;;;;;26.09;63.19;100847.22;5070294;28;20469;-77
2022/08/27 10:53:43;;;;;;;18.50;5.95;;;;;;;26.13;63.28;100851.66;5050807;28;20076;-78
2022/08/27 10:56:18;;;;;;;18.35;5.60;;;;;;;26.08;63.30;100835.63;5079158;28;20025;-82
2022/08/27 10:59:07;;;;;;;13.20;5.97;;;;;;;26.13;63.62;100848.97;5078761;28;20060;-83
2022/08/27 11:01:45;;;;;;;16.35;5.90;;;;;;;26.22;63.40;100842.66;5067091;28;20042;-82
2022/08/27 11:04:21;;;;;;;13.35;5.78;;;;;;;26.10;62.88;100828.47;5072412;28;20032;-82
2022/08/27 11:07:26;;;;;;;16.15;6.10;;;;;;;26.08;63.60;100834.75;5047734;28;20048;-82
2022/08/27 11:09:56;;;;;;;15.68;5.70;;;;;;;26.13;63.04;100839.16;5065511;28;20039;-82
2022/08/27 11:12:27;;;;;;;12.43;5.57;;;;;;;26.12;63.51;100834.72;5057771;28;20396;-82
2022/08/27 11:15:00;;;;;;;13.48;5.57;;;;;;;26.18;63.45;100847.13;5051911;28;20111;-80
2022/08/27 11:18:06;;;;;;;13.75;5.60;;;;;;;26.21;63.04;100844.44;5045491;28;20028;-84
2022/08/27 11:20:52;;;;;;;13.13;5.45;;;;;;;26.28;63.05;100850.63;5057188;28;20122;-84
2022/08/27 11:23:26;;;;;;;14.32;5.13;;;;;;;26.20;63.13;100835.53;5054528;28;20094;-81
2022/08/27 11:25:59;;;;;;;13.55;5.40;;;;;;;26.33;63.24;100843.41;5063641;28;20056;-80
2022/08/27 11:28:30;;;;;;;12.60;5.80;;;;;;;26.18;62.91;100823.94;5074288;28;20075;-82
2022/08/27 11:31:17;;;;;;;11.23;5.57;;;;;;;26.31;62.90;100835.44;5072991;28;20448;-82
2022/08/27 11:33:45;;;;;;;;;;;;;;;26.39;63.06;100852.31;5055883;28;20044;-82
2022/08/27 11:36:39;;;;;;;16.23;5.43;;;;;;;26.39;62.91;100851.41;5071763;28;19912;-80
2022/08/27 11:39:25;;;;;;;14.13;5.72;;;;;;;26.38;63.08;100853.19;5061993;28;20021;-80
2022/08/27 11:41:59;;;;;;;15.83;5.80;;;;;;;26.39;62.91;100848.72;5071767;28;20071;-79
2022/08/27 11:44:26;;;;;;;14.23;5.50;;;;;;;26.37;63.32;100845.16;5071508;28;20329;-80
2022/08/27 11:47:12;;;;;;;15.88;5.55;;;;;;;26.43;62.91;100842.44;5050293;28;20036;-80
2022/08/27 11:49:43;;;;;;;14.27;5.60;;;;;;;26.38;63.11;100834.44;5067086;28;20081;-82
2022/08/27 11:52:10;;;;;;;17.08;6.25;;;;;;;26.32;63.19;100831.81;5053607;28;20109;-82
2022/08/27 11:55:20;;;;;;;15.48;5.57;;;;;;;26.42;63.06;100851.38;5062621;28;20028;-86